createdAt,value
2023-05-19T00:00:23.847Z,13.90
2023-05-19T00:10:26.126Z,11.25
2023-05-19T00:20:28.110Z,9.95
2023-05-19T00:30:30.956Z,12.57
2023-05-19T00:40:35.881Z,21.65
2023-05-19T00:50:38.004Z,9.68
2023-05-19T01:00:40.759Z,15.48
2023-05-19T01:10:42.730Z,16.73
2023-05-19T01:21:17.728Z,18.17
2023-05-19T01:31:23.316Z,15.52
2023-05-19T01:41:26.446Z,16.92
2023-05-19T01:51:28.331Z,14.35
2023-05-19T02:01:53.757Z,19.10
2023-05-19T02:12:01.919Z,16.75
2023-05-19T02:22:03.967Z,13.82
2023-05-19T02:32:06.749Z,13.30
2023-05-19T02:42:08.658Z,24.23
2023-05-19T02:52:10.983Z,20.02
2023-05-19T03:02:13.495Z,13.60
2023-05-19T03:12:15.456Z,20.98
2023-05-19T03:22:17.622Z,28.25
2023-05-19T03:32:19.777Z,24.75
2023-05-19T03:42:22.436Z,20.10
2023-05-19T03:52:24.851Z,20.92
2023-05-19T04:02:32.743Z,23.83
2023-05-19T04:12:34.848Z,16.75
2023-05-19T04:22:36.810Z,17.83
2023-05-19T04:32:38.776Z,17.05
2023-05-19T04:42:41.553Z,21.67
2023-05-19T04:52:45.102Z,23.67
2023-05-19T05:02:47.061Z,26.33
2023-05-19T05:12:52.914Z,20.80
2023-05-19T05:22:55.007Z,26.42
2023-05-19T05:32:58.245Z,21.23
2023-05-19T05:53:19.094Z,16.40
2023-05-19T06:03:23.254Z,17.40
2023-05-19T06:13:26.630Z,15.90
2023-05-19T06:23:31.321Z,9.68
2023-05-19T06:33:33.491Z,14.77
2023-05-19T06:43:35.527Z,14.60
2023-05-19T06:53:38.600Z,15.15
2023-05-19T07:03:43.854Z,16.02
2023-05-19T07:13:47.413Z,15.85
2023-05-19T07:23:56.368Z,11.30
2023-05-19T07:33:58.976Z,12.38
2023-05-19T07:44:00.918Z,15.07
2023-05-19T07:54:02.823Z,15.93
2023-05-19T08:04:05.192Z,11.80
2023-05-19T08:14:07.263Z,10.18
2023-05-19T08:24:09.284Z,10.82
2023-05-19T08:34:11.128Z,7.40
2023-05-19T08:44:13.091Z,13.48
2023-05-19T08:54:16.295Z,13.70
2023-05-19T09:04:18.430Z,11.02
2023-05-19T09:14:20.367Z,12.52
2023-05-19T09:24:26.190Z,10.70
2023-05-19T09:34:28.100Z,13.98
2023-05-19T09:44:30.108Z,11.80
2023-05-19T09:54:34.453Z,15.38
2023-05-19T10:04:36.919Z,11.93
2023-05-19T10:14:39.011Z,12.02
2023-05-19T10:24:41.177Z,18.05
2023-05-19T10:35:12.720Z,13.68
2023-05-19T10:45:24.230Z,12.75
2023-05-19T10:55:52.429Z,15.18
2023-05-19T11:06:30.654Z,18.00
2023-05-19T11:16:32.850Z,16.92
2023-05-19T11:26:42.171Z,13.10
2023-05-19T11:36:44.886Z,18.52
2023-05-19T11:46:47.026Z,18.02
2023-05-19T11:56:49.504Z,11.35
2023-05-19T12:06:51.590Z,20.58
2023-05-19T12:16:53.627Z,15.48
2023-05-19T12:27:06.301Z,17.60
2023-05-19T12:37:10.890Z,21.02
2023-05-19T12:47:13.772Z,22.15
2023-05-19T12:57:20.722Z,17.38
2023-05-19T13:07:23.154Z,17.67
2023-05-19T13:17:26.099Z,19.92
2023-05-19T13:27:28.014Z,18.88
2023-05-19T13:37:30.107Z,29.95
2023-05-19T13:47:32.137Z,20.50
2023-05-19T13:57:34.748Z,21.70
2023-05-19T14:07:36.723Z,22.85
2023-05-19T14:17:39.354Z,20.88
2023-05-19T14:27:41.308Z,22.95
2023-05-19T14:37:43.238Z,20.10
2023-05-19T14:47:46.177Z,21.45
2023-05-19T14:57:49.007Z,17.08
2023-05-19T15:07:51.252Z,18.20
2023-05-19T15:17:53.229Z,23.88
2023-05-19T15:27:55.164Z,20.08
2023-05-19T15:37:57.096Z,15.98
2023-05-19T15:47:59.091Z,15.65
2023-05-19T15:58:01.028Z,17.02
2023-05-19T16:08:02.945Z,18.35
2023-05-19T16:18:04.898Z,16.63
2023-05-19T16:28:06.881Z,20.83
2023-05-19T16:38:08.975Z,22.98
2023-05-19T16:48:10.971Z,19.52
2023-05-19T16:58:12.838Z,18.05
2023-05-19T17:08:14.815Z,20.65
2023-05-19T17:18:16.797Z,18.73
2023-05-19T17:28:18.882Z,27.05
2023-05-19T17:38:20.956Z,22.90
2023-05-19T17:48:22.896Z,30.90
2023-05-19T17:58:25.306Z,26.05
2023-05-19T18:08:28.557Z,38.63
2023-05-19T18:18:30.451Z,20.15
2023-05-19T18:28:32.326Z,22.92
2023-05-19T18:38:34.272Z,23.65
2023-05-19T18:48:36.254Z,23.70
2023-05-19T18:58:38.566Z,30.60
2023-05-19T19:08:40.555Z,23.27
2023-05-19T19:18:42.936Z,31.25
2023-05-19T19:28:44.827Z,27.33
2023-05-19T19:38:46.707Z,27.23
2023-05-19T19:48:48.597Z,25.52
2023-05-19T19:58:50.919Z,25.98
2023-05-19T20:08:52.896Z,29.70
2023-05-19T20:18:54.819Z,24.58
2023-05-19T20:28:56.801Z,38.20
2023-05-19T20:38:58.603Z,32.70
2023-05-19T20:49:00.468Z,32.88
2023-05-19T20:59:02.305Z,38.08
2023-05-19T21:09:06.068Z,31.45
2023-05-19T21:19:07.938Z,44.83
2023-05-19T21:29:10.425Z,36.00
2023-05-19T21:39:12.339Z,28.45
2023-05-19T21:49:14.276Z,39.55
2023-05-19T21:59:16.194Z,34.63
2023-05-19T22:09:18.159Z,39.30
2023-05-19T22:19:20.300Z,43.38
2023-05-19T22:29:22.257Z,35.10
2023-05-19T22:39:24.153Z,40.50
2023-05-19T22:49:26.095Z,40.50
2023-05-19T22:59:28.070Z,26.75
2023-05-19T23:09:29.994Z,39.05
2023-05-19T23:19:32.001Z,34.70
2023-05-19T23:29:33.915Z,32.67
2023-05-19T23:39:35.811Z,34.72
2023-05-19T23:49:38.214Z,31.73
2023-05-19T23:59:40.146Z,36.97
